Time,TemperatureF,DewpointF,PressureIn,WindDirection,WindDirectionDegrees,WindSpeedMPH,WindSpeedGustMPH,Humidity,HourlyPrecipIn,Conditions,Clouds,dailyrainin,SoftwareType,DateUTC
2013-07-05 00:12:00,70.5,63.0,29.99,SE,129,2.0,4.0,76,0.00,,,0.00,weatherlink.com 1.10,2013-07-05 05:12:00,
2013-07-05 00:27:00,70.6,63.0,30.00,South,172,0.0,3.0,77,0.00,,,0.00,weatherlink.com 1.10,2013-07-05 05:27:00,
2013-07-05 00:42:00,69.8,63.0,30.00,East,91,2.0,2.0,79,0.00,,,0.00,weatherlink.com 1.10,2013-07-05 05:42:00,
2013-07-05 00:57:00,69.4,64.0,30.00,ESE,122,0.0,3.0,82,0.00,,,0.00,weatherlink.com 1.10,2013-07-05 05:57:00,
2013-07-05 01:12:00,69.3,64.0,29.99,East,80,1.0,3.0,84,0.00,,,0.00,weatherlink.com 1.10,2013-07-05 06:12:00,
2013-07-05 01:27:00,69.1,65.0,29.98,ESE,115,2.0,4.0,86,0.00,,,0.00,weatherlink.com 1.10,2013-07-05 06:27:00,
2013-07-05 01:42:00,68.6,65.0,29.98,ESE,110,0.0,1.0,87,0.00,,,0.00,weatherlink.com 1.10,2013-07-05 06:42:00,
2013-07-05 01:57:00,68.1,65.0,29.98,SE,125,0.0,1.0,89,0.00,,,0.00,weatherlink.com 1.10,2013-07-05 06:57:00,
2013-07-05 02:12:00,68.0,65.0,29.98,ESE,115,0.0,1.0,89,0.00,,,0.00,weatherlink.com 1.10,2013-07-05 07:12:00,
2013-07-05 02:27:00,67.4,65.0,29.98,SE,135,0.0,1.0,90,0.00,,,0.00,weatherlink.com 1.10,2013-07-05 07:27:00,
2013-07-05 02:42:00,67.5,65.0,29.98,SE,131,0.0,2.0,92,0.00,,,0.00,weatherlink.com 1.10,2013-07-05 07:42:00,
2013-07-05 02:57:00,67.6,66.0,29.98,SSW,212,0.0,2.0,93,0.00,,,0.00,weatherlink.com 1.10,2013-07-05 07:57:00,
2013-07-05 03:12:00,67.8,66.0,29.98,WNW,295,0.0,3.0,93,0.00,,,0.00,weatherlink.com 1.10,2013-07-05 08:12:00,
2013-07-05 03:27:00,68.3,66.0,29.99,SE,141,0.0,5.0,93,0.00,,,0.00,weatherlink.com 1.10,2013-07-05 08:27:00,
2013-07-05 03:42:00,68.5,67.0,29.99,East,85,2.0,5.0,93,0.00,,,0.00,weatherlink.com 1.10,2013-07-05 08:42:00,
2013-07-05 03:57:00,68.5,67.0,29.99,ESE,119,2.0,5.0,93,0.00,,,0.00,weatherlink.com 1.10,2013-07-05 08:57:00,
2013-07-05 04:12:00,68.4,67.0,29.99,SSE,158,0.0,4.0,94,0.00,,,0.00,weatherlink.com 1.10,2013-07-05 09:12:00,
2013-07-05 04:28:00,68.2,67.0,30.00,East,98,0.0,2.0,94,0.00,,,0.00,weatherlink.com 1.10,2013-07-05 09:28:00,
2013-07-05 04:42:00,67.9,66.0,30.00,ESE,103,1.0,1.0,94,0.00,,,0.00,weatherlink.com 1.10,2013-07-05 09:42:00,
2013-07-05 04:57:00,67.4,66.0,30.00,SSW,208,0.0,1.0,95,0.00,,,0.00,weatherlink.com 1.10,2013-07-05 09:57:00,
2013-07-05 05:12:00,66.8,65.0,30.00,ESE,110,0.0,1.0,95,0.00,,,0.00,weatherlink.com 1.10,2013-07-05 10:12:00,
2013-07-05 05:27:00,66.0,65.0,30.00,ESE,110,0.0,0.0,95,0.00,,,0.00,weatherlink.com 1.10,2013-07-05 10:27:00,
2013-07-05 05:42:00,65.9,65.0,29.99,ESE,110,0.0,1.0,96,0.00,,,0.00,weatherlink.com 1.10,2013-07-05 10:42:00,
2013-07-05 05:57:00,65.7,65.0,30.00,ESE,110,0.0,0.0,97,0.00,,,0.00,weatherlink.com 1.10,2013-07-05 10:57:00,
2013-07-05 06:27:00,65.7,65.0,30.01,ESE,108,1.0,1.0,97,0.00,,,0.00,weatherlink.com 1.10,2013-07-05 11:27:00,
2013-07-05 06:42:00,66.7,66.0,30.01,ESE,110,0.0,1.0,98,0.00,,,0.00,weatherlink.com 1.10,2013-07-05 11:42:00,
2013-07-05 06:57:00,68.6,68.0,30.02,ESE,110,0.0,1.0,97,0.00,,,0.00,weatherlink.com 1.10,2013-07-05 11:57:00,
2013-07-05 07:12:00,70.9,69.0,30.02,ESE,123,1.0,2.0,93,0.00,,,0.00,weatherlink.com 1.10,2013-07-05 12:12:00,
2013-07-05 07:27:00,72.1,69.0,30.03,East,84,3.0,3.0,90,0.00,,,0.00,weatherlink.com 1.10,2013-07-05 12:27:00,
2013-07-05 07:42:00,72.6,69.0,30.03,ESE,121,2.0,3.0,88,0.00,,,0.00,weatherlink.com 1.10,2013-07-05 12:42:00,
2013-07-05 07:57:00,73.1,69.0,30.03,East,100,1.0,4.0,88,0.00,,,0.00,weatherlink.com 1.10,2013-07-05 12:57:00,
2013-07-05 08:12:00,74.4,70.0,30.03,West,264,2.0,3.0,87,0.00,,,0.00,weatherlink.com 1.10,2013-07-05 13:12:00,
2013-07-05 08:27:00,75.7,70.0,30.04,SSW,201,0.0,5.0,83,0.00,,,0.00,weatherlink.com 1.10,2013-07-05 13:27:00,
2013-07-05 08:42:00,75.0,70.0,30.03,SE,129,2.0,5.0,84,0.00,,,0.00,weatherlink.com 1.10,2013-07-05 13:42:00,
2013-07-05 08:58:00,76.1,71.0,30.03,ESE,111,2.0,4.0,83,0.00,,,0.00,weatherlink.com 1.10,2013-07-05 13:58:00,
2013-07-05 09:12:00,78.1,71.0,30.03,West,274,1.0,3.0,79,0.00,,,0.00,weatherlink.com 1.10,2013-07-05 14:12:00,
2013-07-05 09:43:00,79.5,73.0,30.03,SSW,198,1.0,2.0,79,0.00,,,0.00,weatherlink.com 1.10,2013-07-05 14:43:00,
2013-07-05 09:58:00,77.8,70.0,30.03,West,270,3.0,5.0,77,0.00,,,0.00,weatherlink.com 1.10,2013-07-05 14:58:00,
2013-07-05 10:13:00,78.0,70.0,30.03,WSW,255,6.0,6.0,77,0.00,,,0.00,weatherlink.com 1.10,2013-07-05 15:13:00,
2013-07-05 10:29:00,78.4,70.0,30.03,West,263,3.0,6.0,74,0.00,,,0.00,weatherlink.com 1.10,2013-07-05 15:29:00,
2013-07-05 10:43:00,79.2,71.0,30.03,WSW,256,1.0,5.0,75,0.00,,,0.00,weatherlink.com 1.10,2013-07-05 15:43:00,
2013-07-05 10:58:00,79.6,71.0,30.03,West,260,2.0,5.0,76,0.00,,,0.00,weatherlink.com 1.10,2013-07-05 15:58:00,
2013-07-05 11:13:00,80.4,70.0,30.03,SW,226,0.0,5.0,71,0.00,,,0.00,weatherlink.com 1.10,2013-07-05 16:13:00,
2013-07-05 11:28:00,81.7,72.0,30.02,East,91,1.0,4.0,72,0.00,,,0.00,weatherlink.com 1.10,2013-07-05 16:28:00,
2013-07-05 11:43:00,82.4,71.0,30.02,West,263,2.0,7.0,68,0.00,,,0.00,weatherlink.com 1.10,2013-07-05 16:43:00,
2013-07-05 11:58:00,83.2,70.0,30.02,SW,233,2.0,6.0,64,0.00,,,0.00,weatherlink.com 1.10,2013-07-05 16:58:00,
2013-07-05 12:13:00,83.6,70.0,30.02,WSW,246,2.0,5.0,64,0.00,,,0.00,weatherlink.com 1.10,2013-07-05 17:13:00,
2013-07-05 12:28:00,83.2,70.0,30.02,ENE,67,2.0,5.0,64,0.00,,,0.00,weatherlink.com 1.10,2013-07-05 17:28:00,
2013-07-05 12:43:00,84.1,67.0,30.02,SSE,165,1.0,4.0,57,0.00,,,0.00,weatherlink.com 1.10,2013-07-05 17:43:00,
2013-07-05 12:58:00,84.3,68.0,30.02,ENE,60,2.0,7.0,58,0.00,,,0.00,weatherlink.com 1.10,2013-07-05 17:58:00,
2013-07-05 13:13:00,84.2,67.0,30.01,ESE,113,3.0,4.0,57,0.00,,,0.00,weatherlink.com 1.10,2013-07-05 18:13:00,
2013-07-05 13:28:00,83.8,68.0,30.01,East,96,2.0,4.0,60,0.00,,,0.00,weatherlink.com 1.10,2013-07-05 18:28:00,
2013-07-05 13:43:00,83.9,66.0,30.00,East,101,5.0,7.0,55,0.00,,,0.00,weatherlink.com 1.10,2013-07-05 18:43:00,
2013-07-05 13:58:00,83.1,68.0,30.00,East,92,4.0,6.0,60,0.00,,,0.00,weatherlink.com 1.10,2013-07-05 18:58:00,
2013-07-05 14:13:00,82.7,68.0,30.00,East,93,7.0,8.0,61,0.00,,,0.00,weatherlink.com 1.10,2013-07-05 19:13:00,
2013-07-05 14:28:00,83.2,69.0,30.00,SSW,203,3.0,7.0,62,0.00,,,0.00,weatherlink.com 1.10,2013-07-05 19:28:00,
2013-07-05 14:43:00,82.8,69.0,29.99,East,101,2.0,12.0,63,0.00,,,0.00,weatherlink.com 1.10,2013-07-05 19:43:00,
2013-07-05 14:58:00,83.9,69.0,29.99,East,86,4.0,7.0,62,0.00,,,0.00,weatherlink.com 1.10,2013-07-05 19:58:00,
2013-07-05 15:13:00,82.9,69.0,29.99,SE,129,3.0,9.0,64,0.00,,,0.00,weatherlink.com 1.10,2013-07-05 20:13:00,
2013-07-05 15:28:00,82.8,69.0,29.98,SE,135,5.0,8.0,63,0.00,,,0.00,weatherlink.com 1.10,2013-07-05 20:28:00,
2013-07-05 15:43:00,83.7,69.0,29.98,SE,137,4.0,8.0,62,0.00,,,0.00,weatherlink.com 1.10,2013-07-05 20:43:00,
2013-07-05 15:58:00,83.3,69.0,29.98,South,190,3.0,10.0,62,0.00,,,0.00,weatherlink.com 1.10,2013-07-05 20:58:00,
2013-07-05 16:13:00,83.9,68.0,29.98,East,85,8.0,10.0,59,0.00,,,0.00,weatherlink.com 1.10,2013-07-05 21:13:00,
2013-07-05 16:28:00,83.9,68.0,29.98,East,96,3.0,9.0,60,0.00,,,0.00,weatherlink.com 1.10,2013-07-05 21:28:00,
2013-07-05 16:43:00,82.5,68.0,29.98,East,97,5.0,12.0,61,0.00,,,0.00,weatherlink.com 1.10,2013-07-05 21:43:00,
2013-07-05 16:58:00,81.5,69.0,29.97,ENE,77,3.0,6.0,65,0.00,,,0.00,weatherlink.com 1.10,2013-07-05 21:58:00,
2013-07-05 17:13:00,80.6,68.0,29.97,East,89,4.0,8.0,66,0.00,,,0.00,weatherlink.com 1.10,2013-07-05 22:13:00,
2013-07-05 17:28:00,80.3,68.0,29.97,ESE,102,2.0,6.0,67,0.00,,,0.00,weatherlink.com 1.10,2013-07-05 22:28:00,
2013-07-05 17:43:00,81.4,69.0,29.96,East,93,2.0,6.0,66,0.00,,,0.00,weatherlink.com 1.10,2013-07-05 22:43:00,
2013-07-05 17:58:00,82.2,68.0,29.96,SE,139,2.0,6.0,62,0.00,,,0.00,weatherlink.com 1.10,2013-07-05 22:58:00,
2013-07-05 18:13:00,82.7,69.0,29.95,East,88,2.0,4.0,64,0.00,,,0.00,weatherlink.com 1.10,2013-07-05 23:13:00,
2013-07-05 18:28:00,82.4,69.0,29.95,East,98,3.0,5.0,64,0.00,,,0.00,weatherlink.com 1.10,2013-07-05 23:28:00,
2013-07-05 18:43:00,82.4,69.0,29.95,ESE,110,3.0,4.0,65,0.00,,,0.00,weatherlink.com 1.10,2013-07-05 23:43:00,
2013-07-05 18:58:00,82.9,70.0,29.95,SE,131,0.0,3.0,66,0.00,,,0.00,weatherlink.com 1.10,2013-07-05 23:58:00,
2013-07-05 19:13:00,82.2,69.0,29.96,ESE,107,1.0,5.0,64,0.00,,,0.00,weatherlink.com 1.10,2013-07-06 00:13:00,
2013-07-05 19:28:00,81.4,69.0,29.96,SSE,147,0.0,3.0,66,0.00,,,0.00,weatherlink.com 1.10,2013-07-06 00:28:00,
2013-07-05 19:43:00,80.2,68.0,29.96,ESE,116,0.0,2.0,67,0.00,,,0.00,weatherlink.com 1.10,2013-07-06 00:43:00,
2013-07-05 19:58:00,78.1,68.0,29.96,SW,231,0.0,0.0,71,0.00,,,0.00,weatherlink.com 1.10,2013-07-06 00:58:00,
2013-07-05 20:14:00,76.0,67.0,29.96,SW,231,0.0,0.0,74,0.00,,,0.00,weatherlink.com 1.10,2013-07-06 01:14:00,
2013-07-05 20:29:00,74.3,66.0,29.96,SW,231,0.0,0.0,76,0.00,,,0.00,weatherlink.com 1.10,2013-07-06 01:29:00,
2013-07-05 20:44:00,72.5,66.0,29.96,SW,231,0.0,0.0,80,0.00,,,0.00,weatherlink.com 1.10,2013-07-06 01:44:00,
2013-07-05 20:59:00,70.6,65.0,29.96,SW,231,0.0,0.0,83,0.00,,,0.00,weatherlink.com 1.10,2013-07-06 01:59:00,
2013-07-05 21:14:00,69.4,64.0,29.96,SW,231,0.0,0.0,83,0.00,,,0.00,weatherlink.com 1.10,2013-07-06 02:14:00,
2013-07-05 21:29:00,68.7,64.0,29.96,SW,231,0.0,0.0,85,0.00,,,0.00,weatherlink.com 1.10,2013-07-06 02:29:00,
2013-07-05 21:44:00,68.6,64.0,29.97,SW,231,0.0,0.0,85,0.00,,,0.00,weatherlink.com 1.10,2013-07-06 02:44:00,
2013-07-05 21:59:00,69.1,65.0,29.98,SW,231,0.0,1.0,85,0.00,,,0.00,weatherlink.com 1.10,2013-07-06 02:59:00,
2013-07-05 22:14:00,68.5,64.0,29.98,SW,231,0.0,0.0,85,0.00,,,0.00,weatherlink.com 1.10,2013-07-06 03:14:00,
2013-07-05 22:29:00,69.2,65.0,29.98,SE,125,0.0,1.0,85,0.00,,,0.00,weatherlink.com 1.10,2013-07-06 03:29:00,
2013-07-05 22:44:00,69.4,65.0,29.98,SSW,200,0.0,1.0,85,0.00,,,0.00,weatherlink.com 1.10,2013-07-06 03:44:00,
2013-07-05 22:59:00,69.2,65.0,29.98,SSE,148,0.0,1.0,86,0.00,,,0.00,weatherlink.com 1.10,2013-07-06 03:59:00,
2013-07-05 23:14:00,68.9,65.0,29.98,SSE,148,0.0,0.0,87,0.00,,,0.00,weatherlink.com 1.10,2013-07-06 04:14:00,
2013-07-05 23:29:00,68.6,65.0,29.98,SE,146,0.0,1.0,89,0.00,,,0.00,weatherlink.com 1.10,2013-07-06 04:29:00,
2013-07-05 23:44:00,69.8,67.0,29.99,East,91,0.0,3.0,90,0.00,,,0.00,weatherlink.com 1.10,2013-07-06 04:44:00,
2013-07-05 23:59:00,69.9,67.0,29.99,ESE,122,0.0,1.0,90,0.00,,,0.00,weatherlink.com 1.10,2013-07-06 04:59:00,